sensor_id;sensor_type;location;lat;lon;timestamp;P1;durP1;ratioP1;P2;durP2;ratioP2
55794;SDS011;41716;51.910;4.430;2023-06-22T00:00:49;11.57;;;6.38;;
55794;SDS011;41716;51.910;4.430;2023-06-22T00:05:52;11.30;;;6.32;;
55794;SDS011;41716;51.910;4.430;2023-06-22T00:10:53;11.68;;;5.95;;
55794;SDS011;41716;51.910;4.430;2023-06-22T00:15:56;11.20;;;6.45;;
55794;SDS011;41716;51.910;4.430;2023-06-22T00:20:58;14.05;;;6.20;;
55794;SDS011;41716;51.910;4.430;2023-06-22T00:26:00;9.45;;;4.95;;
55794;SDS011;41716;51.910;4.430;2023-06-22T00:31:03;9.05;;;5.22;;
55794;SDS011;41716;51.910;4.430;2023-06-22T00:36:05;8.40;;;4.85;;
55794;SDS011;41716;51.910;4.430;2023-06-22T00:41:07;11.18;;;5.82;;
55794;SDS011;41716;51.910;4.430;2023-06-22T00:46:10;9.82;;;4.57;;
55794;SDS011;41716;51.910;4.430;2023-06-22T00:51:12;8.80;;;4.32;;
55794;SDS011;41716;51.910;4.430;2023-06-22T00:56:14;9.95;;;5.85;;
55794;SDS011;41716;51.910;4.430;2023-06-22T01:01:20;11.18;;;6.15;;
55794;SDS011;41716;51.910;4.430;2023-06-22T01:06:25;9.27;;;5.95;;
55794;SDS011;41716;51.910;4.430;2023-06-22T01:11:39;10.40;;;5.80;;
55794;SDS011;41716;51.910;4.430;2023-06-22T01:16:47;11.43;;;6.55;;
55794;SDS011;41716;51.910;4.430;2023-06-22T01:21:52;11.68;;;6.32;;
55794;SDS011;41716;51.910;4.430;2023-06-22T01:26:57;10.13;;;5.40;;
55794;SDS011;41716;51.910;4.430;2023-06-22T01:32:07;10.23;;;5.78;;
55794;SDS011;41716;51.910;4.430;2023-06-22T01:37:11;13.35;;;7.07;;
55794;SDS011;41716;51.910;4.430;2023-06-22T01:42:13;11.93;;;6.85;;
55794;SDS011;41716;51.910;4.430;2023-06-22T01:47:16;13.13;;;7.57;;
55794;SDS011;41716;51.910;4.430;2023-06-22T01:52:18;10.52;;;5.82;;
55794;SDS011;41716;51.910;4.430;2023-06-22T01:57:21;10.18;;;6.25;;
55794;SDS011;41716;51.910;4.430;2023-06-22T02:02:27;10.63;;;7.10;;
55794;SDS011;41716;51.910;4.430;2023-06-22T02:07:34;12.15;;;7.32;;
55794;SDS011;41716;51.910;4.430;2023-06-22T02:12:42;15.73;;;7.43;;
55794;SDS011;41716;51.910;4.430;2023-06-22T02:17:46;13.27;;;8.10;;
55794;SDS011;41716;51.910;4.430;2023-06-22T02:22:49;14.20;;;8.00;;
55794;SDS011;41716;51.910;4.430;2023-06-22T02:27:51;15.38;;;8.82;;
55794;SDS011;41716;51.910;4.430;2023-06-22T02:32:54;16.45;;;8.40;;
55794;SDS011;41716;51.910;4.430;2023-06-22T02:37:58;14.27;;;8.68;;
55794;SDS011;41716;51.910;4.430;2023-06-22T02:43:00;15.68;;;8.52;;
55794;SDS011;41716;51.910;4.430;2023-06-22T02:48:04;15.85;;;9.52;;
55794;SDS011;41716;51.910;4.430;2023-06-22T02:53:06;15.10;;;8.98;;
55794;SDS011;41716;51.910;4.430;2023-06-22T02:58:07;17.00;;;9.55;;
55794;SDS011;41716;51.910;4.430;2023-06-22T03:03:10;16.02;;;9.50;;
55794;SDS011;41716;51.910;4.430;2023-06-22T03:08:12;19.17;;;10.45;;
55794;SDS011;41716;51.910;4.430;2023-06-22T03:13:14;16.27;;;9.85;;
55794;SDS011;41716;51.910;4.430;2023-06-22T03:18:18;21.00;;;11.33;;
55794;SDS011;41716;51.910;4.430;2023-06-22T03:23:22;20.38;;;11.25;;
55794;SDS011;41716;51.910;4.430;2023-06-22T03:28:24;22.02;;;12.00;;
55794;SDS011;41716;51.910;4.430;2023-06-22T03:33:27;20.55;;;11.90;;
55794;SDS011;41716;51.910;4.430;2023-06-22T03:38:28;20.30;;;11.43;;
55794;SDS011;41716;51.910;4.430;2023-06-22T03:43:30;20.98;;;11.70;;
55794;SDS011;41716;51.910;4.430;2023-06-22T03:48:33;20.05;;;11.65;;
55794;SDS011;41716;51.910;4.430;2023-06-22T03:53:35;21.83;;;12.60;;
55794;SDS011;41716;51.910;4.430;2023-06-22T03:58:36;22.65;;;13.45;;
55794;SDS011;41716;51.910;4.430;2023-06-22T04:03:44;20.23;;;11.68;;
55794;SDS011;41716;51.910;4.430;2023-06-22T04:08:48;22.13;;;12.40;;
55794;SDS011;41716;51.910;4.430;2023-06-22T04:13:51;19.60;;;11.50;;
55794;SDS011;41716;51.910;4.430;2023-06-22T04:18:54;23.30;;;12.73;;
55794;SDS011;41716;51.910;4.430;2023-06-22T04:23:55;19.30;;;11.23;;
55794;SDS011;41716;51.910;4.430;2023-06-22T04:28:57;21.00;;;11.52;;
55794;SDS011;41716;51.910;4.430;2023-06-22T04:34:00;19.15;;;11.10;;
55794;SDS011;41716;51.910;4.430;2023-06-22T04:39:06;23.10;;;11.85;;
55794;SDS011;41716;51.910;4.430;2023-06-22T04:44:09;19.67;;;11.88;;
55794;SDS011;41716;51.910;4.430;2023-06-22T04:49:12;19.85;;;11.95;;
55794;SDS011;41716;51.910;4.430;2023-06-22T04:54:14;20.65;;;11.75;;
55794;SDS011;41716;51.910;4.430;2023-06-22T04:59:16;22.73;;;12.57;;
55794;SDS011;41716;51.910;4.430;2023-06-22T05:04:20;19.00;;;11.60;;
55794;SDS011;41716;51.910;4.430;2023-06-22T05:09:22;35.58;;;15.27;;
55794;SDS011;41716;51.910;4.430;2023-06-22T05:14:24;22.05;;;11.82;;
55794;SDS011;41716;51.910;4.430;2023-06-22T05:19:27;19.77;;;10.55;;
55794;SDS011;41716;51.910;4.430;2023-06-22T05:24:33;17.73;;;10.50;;
55794;SDS011;41716;51.910;4.430;2023-06-22T05:29:35;18.73;;;11.20;;
55794;SDS011;41716;51.910;4.430;2023-06-22T05:34:38;17.83;;;10.57;;
55794;SDS011;41716;51.910;4.430;2023-06-22T05:39:40;15.82;;;9.50;;
55794;SDS011;41716;51.910;4.430;2023-06-22T05:44:41;16.20;;;8.50;;
55794;SDS011;41716;51.910;4.430;2023-06-22T05:49:44;15.98;;;8.38;;
55794;SDS011;41716;51.910;4.430;2023-06-22T05:54:46;14.43;;;7.70;;
55794;SDS011;41716;51.910;4.430;2023-06-22T05:59:48;12.63;;;7.80;;
55794;SDS011;41716;51.910;4.430;2023-06-22T06:04:51;14.68;;;8.68;;
55794;SDS011;41716;51.910;4.430;2023-06-22T06:09:52;11.50;;;7.75;;
55794;SDS011;41716;51.910;4.430;2023-06-22T06:14:54;12.05;;;7.95;;
55794;SDS011;41716;51.910;4.430;2023-06-22T06:19:58;13.95;;;8.38;;
55794;SDS011;41716;51.910;4.430;2023-06-22T06:25:00;14.38;;;8.90;;
55794;SDS011;41716;51.910;4.430;2023-06-22T06:30:02;15.20;;;8.15;;
55794;SDS011;41716;51.910;4.430;2023-06-22T06:35:07;14.77;;;7.63;;
55794;SDS011;41716;51.910;4.430;2023-06-22T06:40:10;12.23;;;7.50;;
55794;SDS011;41716;51.910;4.430;2023-06-22T06:45:14;12.55;;;7.03;;
55794;SDS011;41716;51.910;4.430;2023-06-22T06:50:18;13.25;;;7.57;;
55794;SDS011;41716;51.910;4.430;2023-06-22T06:55:21;12.05;;;6.80;;
55794;SDS011;41716;51.910;4.430;2023-06-22T07:00:25;13.73;;;7.30;;
55794;SDS011;41716;51.910;4.430;2023-06-22T07:05:28;12.75;;;7.43;;
55794;SDS011;41716;51.910;4.430;2023-06-22T07:10:29;17.17;;;7.22;;
55794;SDS011;41716;51.910;4.430;2023-06-22T07:15:31;13.10;;;7.07;;
55794;SDS011;41716;51.910;4.430;2023-06-22T07:20:34;10.27;;;5.88;;
55794;SDS011;41716;51.910;4.430;2023-06-22T07:25:36;9.52;;;5.60;;
55794;SDS011;41716;51.910;4.430;2023-06-22T07:30:38;12.20;;;5.50;;
55794;SDS011;41716;51.910;4.430;2023-06-22T07:35:41;10.35;;;4.88;;
55794;SDS011;41716;51.910;4.430;2023-06-22T07:40:43;9.38;;;4.28;;
55794;SDS011;41716;51.910;4.430;2023-06-22T07:45:48;7.93;;;4.60;;
55794;SDS011;41716;51.910;4.430;2023-06-22T07:50:53;5.75;;;3.22;;
55794;SDS011;41716;51.910;4.430;2023-06-22T07:55:55;5.25;;;3.17;;
55794;SDS011;41716;51.910;4.430;2023-06-22T08:00:56;6.20;;;3.92;;
55794;SDS011;41716;51.910;4.430;2023-06-22T08:05:59;10.10;;;4.43;;
55794;SDS011;41716;51.910;4.430;2023-06-22T08:11:01;7.55;;;3.95;;
55794;SDS011;41716;51.910;4.430;2023-06-22T08:16:03;9.05;;;3.78;;
55794;SDS011;41716;51.910;4.430;2023-06-22T08:21:08;6.18;;;3.17;;
55794;SDS011;41716;51.910;4.430;2023-06-22T08:26:11;5.75;;;3.25;;
55794;SDS011;41716;51.910;4.430;2023-06-22T08:31:13;4.28;;;1.80;;
55794;SDS011;41716;51.910;4.430;2023-06-22T08:36:16;2.92;;;1.40;;
55794;SDS011;41716;51.910;4.430;2023-06-22T08:41:17;1.92;;;1.05;;
55794;SDS011;41716;51.910;4.430;2023-06-22T08:46:19;2.03;;;0.90;;
55794;SDS011;41716;51.910;4.430;2023-06-22T08:51:24;1.73;;;0.85;;
55794;SDS011;41716;51.910;4.430;2023-06-22T08:56:26;2.28;;;0.80;;
55794;SDS011;41716;51.910;4.430;2023-06-22T09:01:28;2.97;;;1.70;;
55794;SDS011;41716;51.910;4.430;2023-06-22T09:06:31;4.97;;;1.30;;
55794;SDS011;41716;51.910;4.430;2023-06-22T09:11:33;4.35;;;1.73;;
55794;SDS011;41716;51.910;4.430;2023-06-22T09:16:34;3.30;;;1.80;;
55794;SDS011;41716;51.910;4.430;2023-06-22T09:21:38;5.07;;;2.30;;
55794;SDS011;41716;51.910;4.430;2023-06-22T09:26:39;5.20;;;2.80;;
55794;SDS011;41716;51.910;4.430;2023-06-22T09:31:41;6.28;;;3.05;;
55794;SDS011;41716;51.910;4.430;2023-06-22T09:36:44;6.43;;;4.32;;
55794;SDS011;41716;51.910;4.430;2023-06-22T09:41:46;8.60;;;4.20;;
55794;SDS011;41716;51.910;4.430;2023-06-22T09:46:47;8.20;;;3.55;;
55794;SDS011;41716;51.910;4.430;2023-06-22T09:51:51;5.82;;;3.88;;
55794;SDS011;41716;51.910;4.430;2023-06-22T09:56:52;5.43;;;3.58;;
55794;SDS011;41716;51.910;4.430;2023-06-22T10:01:54;8.20;;;3.97;;
55794;SDS011;41716;51.910;4.430;2023-06-22T10:06:57;7.57;;;3.97;;
55794;SDS011;41716;51.910;4.430;2023-06-22T10:11:59;8.20;;;3.75;;
55794;SDS011;41716;51.910;4.430;2023-06-22T10:17:05;6.75;;;4.85;;
55794;SDS011;41716;51.910;4.430;2023-06-22T10:22:09;8.77;;;5.37;;
55794;SDS011;41716;51.910;4.430;2023-06-22T10:27:11;11.02;;;5.18;;
55794;SDS011;41716;51.910;4.430;2023-06-22T10:32:13;9.35;;;5.28;;
55794;SDS011;41716;51.910;4.430;2023-06-22T10:37:16;9.38;;;5.00;;
55794;SDS011;41716;51.910;4.430;2023-06-22T10:42:18;11.20;;;5.57;;
55794;SDS011;41716;51.910;4.430;2023-06-22T10:47:19;9.70;;;5.57;;
55794;SDS011;41716;51.910;4.430;2023-06-22T10:52:23;7.63;;;4.30;;
55794;SDS011;41716;51.910;4.430;2023-06-22T10:57:24;7.93;;;4.80;;
55794;SDS011;41716;51.910;4.430;2023-06-22T11:02:26;10.50;;;6.70;;
55794;SDS011;41716;51.910;4.430;2023-06-22T11:07:30;9.52;;;5.35;;
55794;SDS011;41716;51.910;4.430;2023-06-22T11:12:32;10.75;;;6.38;;
55794;SDS011;41716;51.910;4.430;2023-06-22T11:17:34;11.57;;;6.30;;
55794;SDS011;41716;51.910;4.430;2023-06-22T11:22:38;12.02;;;5.93;;
55794;SDS011;41716;51.910;4.430;2023-06-22T11:27:42;9.23;;;5.40;;
55794;SDS011;41716;51.910;4.430;2023-06-22T11:32:44;9.00;;;5.90;;
55794;SDS011;41716;51.910;4.430;2023-06-22T11:37:47;10.65;;;6.63;;
55794;SDS011;41716;51.910;4.430;2023-06-22T11:47:51;11.02;;;7.13;;
55794;SDS011;41716;51.910;4.430;2023-06-22T11:52:54;11.05;;;6.88;;
55794;SDS011;41716;51.910;4.430;2023-06-22T11:57:56;11.30;;;7.97;;
55794;SDS011;41716;51.910;4.430;2023-06-22T12:02:58;12.68;;;8.07;;
55794;SDS011;41716;51.910;4.430;2023-06-22T12:08:01;11.77;;;7.25;;
55794;SDS011;41716;51.910;4.430;2023-06-22T12:13:03;10.90;;;7.15;;
55794;SDS011;41716;51.910;4.430;2023-06-22T12:18:05;14.48;;;8.45;;
55794;SDS011;41716;51.910;4.430;2023-06-22T12:23:08;13.43;;;7.72;;
55794;SDS011;41716;51.910;4.430;2023-06-22T12:28:10;11.88;;;7.43;;
55794;SDS011;41716;51.910;4.430;2023-06-22T12:33:11;11.88;;;6.78;;
55794;SDS011;41716;51.910;4.430;2023-06-22T12:38:14;12.55;;;6.80;;
55794;SDS011;41716;51.910;4.430;2023-06-22T12:43:25;11.73;;;7.90;;
55794;SDS011;41716;51.910;4.430;2023-06-22T12:48:27;8.82;;;5.50;;
55794;SDS011;41716;51.910;4.430;2023-06-22T12:53:29;7.80;;;4.97;;
55794;SDS011;41716;51.910;4.430;2023-06-22T12:58:32;11.38;;;6.05;;
55794;SDS011;41716;51.910;4.430;2023-06-22T13:03:33;10.15;;;6.18;;
55794;SDS011;41716;51.910;4.430;2023-06-22T13:08:35;10.77;;;7.43;;
55794;SDS011;41716;51.910;4.430;2023-06-22T13:13:38;13.15;;;8.85;;
55794;SDS011;41716;51.910;4.430;2023-06-22T13:18:41;14.05;;;8.88;;
55794;SDS011;41716;51.910;4.430;2023-06-22T13:23:43;16.20;;;9.57;;
55794;SDS011;41716;51.910;4.430;2023-06-22T13:28:46;15.23;;;9.55;;
55794;SDS011;41716;51.910;4.430;2023-06-22T13:33:47;15.45;;;10.15;;
55794;SDS011;41716;51.910;4.430;2023-06-22T13:38:52;15.98;;;10.68;;
55794;SDS011;41716;51.910;4.430;2023-06-22T13:43:55;17.77;;;10.95;;
55794;SDS011;41716;51.910;4.430;2023-06-22T13:48:56;16.45;;;10.50;;
55794;SDS011;41716;51.910;4.430;2023-06-22T13:53:58;18.60;;;11.10;;
55794;SDS011;41716;51.910;4.430;2023-06-22T13:59:01;13.98;;;10.05;;
55794;SDS011;41716;51.910;4.430;2023-06-22T14:04:03;15.23;;;9.88;;
55794;SDS011;41716;51.910;4.430;2023-06-22T14:09:04;14.38;;;9.55;;
55794;SDS011;41716;51.910;4.430;2023-06-22T14:14:08;13.95;;;8.13;;
55794;SDS011;41716;51.910;4.430;2023-06-22T14:19:10;16.45;;;10.30;;
55794;SDS011;41716;51.910;4.430;2023-06-22T14:24:11;16.02;;;10.23;;
55794;SDS011;41716;51.910;4.430;2023-06-22T14:29:14;14.85;;;10.32;;
55794;SDS011;41716;51.910;4.430;2023-06-22T14:34:17;15.20;;;10.73;;
55794;SDS011;41716;51.910;4.430;2023-06-22T14:39:18;18.23;;;10.73;;
55794;SDS011;41716;51.910;4.430;2023-06-22T14:44:22;12.68;;;9.00;;
55794;SDS011;41716;51.910;4.430;2023-06-22T14:49:24;15.80;;;8.55;;
55794;SDS011;41716;51.910;4.430;2023-06-22T14:54:26;15.15;;;9.05;;
55794;SDS011;41716;51.910;4.430;2023-06-22T14:59:29;13.55;;;9.02;;
55794;SDS011;41716;51.910;4.430;2023-06-22T15:04:30;13.38;;;9.07;;
55794;SDS011;41716;51.910;4.430;2023-06-22T15:09:34;14.52;;;8.80;;
55794;SDS011;41716;51.910;4.430;2023-06-22T15:14:40;14.38;;;9.27;;
55794;SDS011;41716;51.910;4.430;2023-06-22T15:19:42;10.48;;;8.15;;
55794;SDS011;41716;51.910;4.430;2023-06-22T15:24:44;19.38;;;10.68;;
55794;SDS011;41716;51.910;4.430;2023-06-22T15:29:49;13.70;;;7.65;;
55794;SDS011;41716;51.910;4.430;2023-06-22T15:34:51;13.93;;;7.57;;
55794;SDS011;41716;51.910;4.430;2023-06-22T15:39:53;11.50;;;7.00;;
55794;SDS011;41716;51.910;4.430;2023-06-22T15:44:57;9.97;;;6.50;;
55794;SDS011;41716;51.910;4.430;2023-06-22T15:49:59;9.07;;;6.05;;
55794;SDS011;41716;51.910;4.430;2023-06-22T15:55:01;8.20;;;5.30;;
55794;SDS011;41716;51.910;4.430;2023-06-22T16:00:05;7.78;;;5.38;;
55794;SDS011;41716;51.910;4.430;2023-06-22T16:05:08;11.43;;;6.07;;
55794;SDS011;41716;51.910;4.430;2023-06-22T16:10:10;9.15;;;6.15;;
55794;SDS011;41716;51.910;4.430;2023-06-22T16:15:15;9.63;;;5.88;;
55794;SDS011;41716;51.910;4.430;2023-06-22T16:20:17;9.63;;;5.93;;
55794;SDS011;41716;51.910;4.430;2023-06-22T16:25:21;8.07;;;5.22;;
55794;SDS011;41716;51.910;4.430;2023-06-22T16:30:24;10.75;;;6.07;;
55794;SDS011;41716;51.910;4.430;2023-06-22T16:35:26;10.27;;;5.70;;
55794;SDS011;41716;51.910;4.430;2023-06-22T16:40:28;8.80;;;6.23;;
55794;SDS011;41716;51.910;4.430;2023-06-22T16:45:31;9.60;;;6.18;;
55794;SDS011;41716;51.910;4.430;2023-06-22T16:50:34;8.05;;;5.78;;
55794;SDS011;41716;51.910;4.430;2023-06-22T16:55:36;10.07;;;6.00;;
55794;SDS011;41716;51.910;4.430;2023-06-22T17:00:39;10.03;;;6.50;;
55794;SDS011;41716;51.910;4.430;2023-06-22T17:05:42;9.90;;;6.32;;
55794;SDS011;41716;51.910;4.430;2023-06-22T17:10:44;9.98;;;6.55;;
55794;SDS011;41716;51.910;4.430;2023-06-22T17:15:47;9.65;;;6.32;;
55794;SDS011;41716;51.910;4.430;2023-06-22T17:20:52;8.85;;;5.80;;
55794;SDS011;41716;51.910;4.430;2023-06-22T17:25:53;8.93;;;5.63;;
55794;SDS011;41716;51.910;4.430;2023-06-22T17:31:09;8.68;;;5.43;;
55794;SDS011;41716;51.910;4.430;2023-06-22T17:36:11;8.90;;;5.68;;
55794;SDS011;41716;51.910;4.430;2023-06-22T17:41:14;8.88;;;5.75;;
55794;SDS011;41716;51.910;4.430;2023-06-22T17:46:17;9.35;;;6.07;;
55794;SDS011;41716;51.910;4.430;2023-06-22T17:51:19;8.18;;;5.68;;
55794;SDS011;41716;51.910;4.430;2023-06-22T17:56:20;12.82;;;6.28;;
55794;SDS011;41716;51.910;4.430;2023-06-22T18:01:30;10.27;;;6.22;;
55794;SDS011;41716;51.910;4.430;2023-06-22T18:06:37;13.60;;;5.70;;
55794;SDS011;41716;51.910;4.430;2023-06-22T18:11:42;9.65;;;6.35;;
55794;SDS011;41716;51.910;4.430;2023-06-22T18:16:47;9.50;;;6.03;;
55794;SDS011;41716;51.910;4.430;2023-06-22T18:21:49;8.77;;;5.78;;
55794;SDS011;41716;51.910;4.430;2023-06-22T18:26:51;7.97;;;3.78;;
55794;SDS011;41716;51.910;4.430;2023-06-22T18:31:55;4.40;;;2.80;;
55794;SDS011;41716;51.910;4.430;2023-06-22T18:36:57;3.78;;;2.20;;
55794;SDS011;41716;51.910;4.430;2023-06-22T18:42:01;5.65;;;2.38;;
55794;SDS011;41716;51.910;4.430;2023-06-22T18:47:06;3.05;;;2.00;;
55794;SDS011;41716;51.910;4.430;2023-06-22T18:52:12;4.60;;;1.83;;
55794;SDS011;41716;51.910;4.430;2023-06-22T18:57:16;3.42;;;1.70;;
55794;SDS011;41716;51.910;4.430;2023-06-22T19:02:41;2.88;;;1.45;;
55794;SDS011;41716;51.910;4.430;2023-06-22T19:07:56;3.95;;;1.30;;
55794;SDS011;41716;51.910;4.430;2023-06-22T19:13:19;4.50;;;1.50;;
55794;SDS011;41716;51.910;4.430;2023-06-22T19:18:31;2.08;;;1.00;;
55794;SDS011;41716;51.910;4.430;2023-06-22T19:23:34;3.03;;;1.35;;
55794;SDS011;41716;51.910;4.430;2023-06-22T19:28:43;5.35;;;1.73;;
55794;SDS011;41716;51.910;4.430;2023-06-22T19:33:47;3.15;;;1.25;;
55794;SDS011;41716;51.910;4.430;2023-06-22T19:38:54;7.15;;;1.33;;
55794;SDS011;41716;51.910;4.430;2023-06-22T19:43:58;4.45;;;1.30;;
55794;SDS011;41716;51.910;4.430;2023-06-22T19:49:01;3.53;;;1.33;;
55794;SDS011;41716;51.910;4.430;2023-06-22T19:54:04;3.47;;;1.27;;
55794;SDS011;41716;51.910;4.430;2023-06-22T20:04:14;3.30;;;1.52;;
55794;SDS011;41716;51.910;4.430;2023-06-22T20:09:15;6.60;;;1.65;;
55794;SDS011;41716;51.910;4.430;2023-06-22T20:14:19;4.40;;;1.70;;
55794;SDS011;41716;51.910;4.430;2023-06-22T20:24:34;4.28;;;1.58;;
55794;SDS011;41716;51.910;4.430;2023-06-22T20:29:38;5.43;;;1.92;;
55794;SDS011;41716;51.910;4.430;2023-06-22T20:34:41;4.82;;;1.90;;
55794;SDS011;41716;51.910;4.430;2023-06-22T20:39:44;5.25;;;2.00;;
55794;SDS011;41716;51.910;4.430;2023-06-22T20:44:46;8.00;;;2.35;;
55794;SDS011;41716;51.910;4.430;2023-06-22T20:49:50;4.38;;;1.98;;
55794;SDS011;41716;51.910;4.430;2023-06-22T20:54:52;6.55;;;2.33;;
55794;SDS011;41716;51.910;4.430;2023-06-22T20:59:54;5.68;;;2.30;;
55794;SDS011;41716;51.910;4.430;2023-06-22T21:04:57;4.85;;;2.47;;
55794;SDS011;41716;51.910;4.430;2023-06-22T21:09:59;6.45;;;2.60;;
55794;SDS011;41716;51.910;4.430;2023-06-22T21:15:00;4.20;;;2.22;;
55794;SDS011;41716;51.910;4.430;2023-06-22T21:20:06;4.65;;;2.55;;
55794;SDS011;41716;51.910;4.430;2023-06-22T21:25:09;4.75;;;2.60;;
55794;SDS011;41716;51.910;4.430;2023-06-22T21:30:13;5.75;;;2.30;;
55794;SDS011;41716;51.910;4.430;2023-06-22T21:35:16;9.73;;;2.60;;
55794;SDS011;41716;51.910;4.430;2023-06-22T21:40:18;4.65;;;2.30;;
55794;SDS011;41716;51.910;4.430;2023-06-22T21:45:20;5.47;;;2.20;;
55794;SDS011;41716;51.910;4.430;2023-06-22T21:50:23;3.65;;;1.75;;
55794;SDS011;41716;51.910;4.430;2023-06-22T21:55:25;4.45;;;2.08;;
55794;SDS011;41716;51.910;4.430;2023-06-22T22:00:26;5.22;;;2.28;;
55794;SDS011;41716;51.910;4.430;2023-06-22T22:05:29;3.00;;;2.13;;
55794;SDS011;41716;51.910;4.430;2023-06-22T22:10:31;4.15;;;2.30;;
55794;SDS011;41716;51.910;4.430;2023-06-22T22:15:36;4.22;;;2.35;;
55794;SDS011;41716;51.910;4.430;2023-06-22T22:20:40;4.72;;;2.35;;
55794;SDS011;41716;51.910;4.430;2023-06-22T22:25:41;4.20;;;2.38;;
55794;SDS011;41716;51.910;4.430;2023-06-22T22:30:43;4.30;;;2.20;;
55794;SDS011;41716;51.910;4.430;2023-06-22T22:35:46;4.25;;;2.33;;
55794;SDS011;41716;51.910;4.430;2023-06-22T22:40:48;5.32;;;2.30;;
55794;SDS011;41716;51.910;4.430;2023-06-22T22:45:50;4.55;;;1.98;;
55794;SDS011;41716;51.910;4.430;2023-06-22T22:50:53;5.47;;;2.17;;
55794;SDS011;41716;51.910;4.430;2023-06-22T22:55:54;3.53;;;2.22;;
55794;SDS011;41716;51.910;4.430;2023-06-22T23:00:57;3.40;;;1.93;;
55794;SDS011;41716;51.910;4.430;2023-06-22T23:06:02;3.97;;;2.20;;
55794;SDS011;41716;51.910;4.430;2023-06-22T23:11:04;5.70;;;2.17;;
55794;SDS011;41716;51.910;4.430;2023-06-22T23:16:06;5.82;;;2.28;;
55794;SDS011;41716;51.910;4.430;2023-06-22T23:21:09;3.55;;;2.00;;
55794;SDS011;41716;51.910;4.430;2023-06-22T23:26:11;6.70;;;2.58;;
55794;SDS011;41716;51.910;4.430;2023-06-22T23:31:14;5.35;;;2.88;;
55794;SDS011;41716;51.910;4.430;2023-06-22T23:36:17;6.28;;;2.90;;
55794;SDS011;41716;51.910;4.430;2023-06-22T23:41:19;6.28;;;2.78;;
55794;SDS011;41716;51.910;4.430;2023-06-22T23:46:21;4.65;;;2.50;;
55794;SDS011;41716;51.910;4.430;2023-06-22T23:51:24;4.88;;;2.10;;
55794;SDS011;41716;51.910;4.430;2023-06-22T23:56:27;5.20;;;2.78;;
